Time;durP1;ratioP1;P1;durP2;ratioP2;P2;SDS_P1;SDS_P2;PMS_P1;PMS_P2;Temp;Humidity;BMP_temperature;BMP_pressure;BME280_temperature;BME280_humidity;BME280_pressure;Samples;Min_cycle;Max_cycle;Signal;HPM_P1;HPM_P2
2022/06/20 00:01:24;;;;;;;8.20;2.50;;;;;;;22.92;39.37;98451.40;105890;1276;97778;-68
2022/06/20 00:03:55;;;;;;;6.40;2.30;;;;;;;22.92;39.47;98450.56;105927;1276;97966;-68
2022/06/20 00:06:25;;;;;;;7.90;2.40;;;;;;;22.94;39.53;98451.91;105843;1276;111352;-68
2022/06/20 00:08:57;;;;;;;10.10;2.70;;;;;;;22.94;39.60;98450.50;105910;1276;97913;-69
2022/06/20 00:11:37;;;;;;;7.80;2.70;;;;;;;22.94;39.49;98450.23;105902;1276;107813;-68
2022/06/20 00:14:12;;;;;;;6.90;2.50;;;;;;;22.94;39.60;98448.65;105865;1276;98022;-66
2022/06/20 00:16:44;;;;;;;8.40;3.20;;;;;;;22.93;39.77;98456.20;105928;1276;98513;-67
2022/06/20 00:19:15;;;;;;;7.50;3.10;;;;;;;22.92;39.59;98454.32;105904;1276;111416;-66
2022/06/20 00:21:45;;;;;;;9.60;2.80;;;;;;;22.91;39.43;98454.61;105953;1276;97916;-69
2022/06/20 00:24:12;;;;;;;7.60;3.20;;;;;;;22.88;39.43;98454.06;105866;1276;109090;-70
2022/06/20 00:26:40;;;;;;;7.60;2.60;;;;;;;22.86;39.27;98453.81;105880;1276;97899;-67
2022/06/20 00:29:12;;;;;;;8.50;2.80;;;;;;;22.84;39.36;98446.92;105919;1275;98083;-68
2022/06/20 00:31:40;;;;;;;5.80;2.70;;;;;;;22.82;39.70;98444.96;105853;1276;111746;-67
2022/06/20 00:34:13;;;;;;;7.70;3.10;;;;;;;22.80;39.76;98439.80;105877;1276;97967;-68
2022/06/20 00:36:41;;;;;;;6.90;2.60;;;;;;;22.78;39.38;98443.16;105826;1276;107821;-67
2022/06/20 00:39:12;;;;;;;11.20;3.10;;;;;;;22.75;39.67;98441.03;105826;1276;99141;-67
2022/06/20 00:41:41;;;;;;;8.40;3.00;;;;;;;22.71;39.57;98439.73;105905;1276;98578;-66
2022/06/20 00:44:21;;;;;;;11.00;2.80;;;;;;;22.66;39.58;98439.46;105868;1276;112664;-67
2022/06/20 00:46:56;;;;;;;7.10;3.40;;;;;;;22.59;39.60;98436.09;105900;1276;97054;-67
2022/06/20 00:49:36;;;;;;;9.00;3.10;;;;;;;22.52;39.87;98430.28;105878;1276;107726;-67
2022/06/20 00:52:23;;;;;;;9.10;2.90;;;;;;;22.47;39.91;98432.30;105880;1276;97756;-68
2022/06/20 00:55:16;;;;;;;8.80;3.30;;;;;;;22.40;39.81;98425.42;105900;1276;97993;-68
2022/06/20 00:58:07;;;;;;;6.50;2.70;;;;;;;22.36;39.97;98421.78;105902;1276;111957;-69
2022/06/20 01:00:40;;;;;;;6.20;2.60;;;;;;;22.33;40.14;98423.06;105968;1276;98037;-67
2022/06/20 01:03:22;;;;;;;7.30;2.80;;;;;;;22.31;39.88;98421.14;105919;1276;107794;-66
2022/06/20 01:06:11;;;;;;;9.40;2.90;;;;;;;22.28;39.99;98420.29;105907;1276;99544;-67
2022/06/20 01:09:06;;;;;;;5.60;2.80;;;;;;;22.24;40.08;98417.11;105926;1276;97855;-67
2022/06/20 01:11:48;;;;;;;6.50;2.50;;;;;;;22.20;40.07;98419.19;105976;1276;112368;-67
2022/06/20 01:14:38;;;;;;;7.90;2.70;;;;;;;22.13;40.18;98418.41;105953;1276;97615;-67
2022/06/20 01:17:38;;;;;;;8.90;2.90;;;;;;;22.08;40.21;98414.77;105819;1276;107354;-66
2022/06/20 01:20:25;;;;;;;9.60;3.00;;;;;;;22.00;40.12;98408.91;105964;1276;99001;-66
2022/06/20 01:23:38;;;;;;;10.90;3.20;;;;;;;21.93;40.26;98409.01;105937;1276;97930;-67
2022/06/20 01:26:10;;;;;;;;;;;;;;;21.84;40.10;98406.09;105447;1282;111761;-66
2022/06/20 01:28:43;;;;;;;8.90;2.90;;;;;;;21.78;40.50;98406.11;105840;1277;97865;-66
2022/06/20 01:31:15;;;;;;;10.00;2.60;;;;;;;21.75;40.43;98405.67;105946;1276;107820;-68
2022/06/20 01:33:46;;;;;;;8.00;2.80;;;;;;;21.73;40.48;98409.58;105885;1279;97941;-68
2022/06/20 01:39:08;;;;;;;7.30;2.80;;;;;;;21.65;40.52;98415.44;105821;1277;111796;-67
2022/06/20 01:44:26;;;;;;;10.70;2.70;;;;;;;21.56;40.84;98410.95;105885;1276;108134;-67
2022/06/20 01:46:54;;;;;;;10.90;3.10;;;;;;;21.50;40.76;98408.89;105993;1276;95283;-68
2022/06/20 01:49:29;;;;;;;8.60;3.20;;;;;;;21.44;40.77;98405.72;105939;1276;97883;-67
2022/06/20 01:52:07;;;;;;;8.60;2.80;;;;;;;21.37;40.77;98405.43;105929;1276;111392;-66
2022/06/20 01:54:42;;;;;;;8.70;2.80;;;;;;;21.31;41.04;98402.84;105936;1276;98593;-68
2022/06/20 01:57:13;;;;;;;8.00;2.80;;;;;;;21.21;40.84;98399.20;105884;1276;108092;-70
2022/06/20 01:59:55;;;;;;;8.00;2.80;;;;;;;21.09;40.81;98392.99;105887;1276;95265;-68
2022/06/20 02:02:27;;;;;;;4.50;2.70;;;;;;;20.99;40.95;98385.27;105921;1276;95259;-68
2022/06/20 02:04:58;;;;;;;11.20;3.10;;;;;;;20.90;41.02;98383.83;105912;1276;111460;-68
2022/06/20 02:07:28;;;;;;;6.30;2.70;;;;;;;20.82;41.18;98383.21;105873;1276;96469;-71
2022/06/20 02:09:56;;;;;;;8.00;3.20;;;;;;;20.75;41.31;98383.92;105867;1279;108896;-70
2022/06/20 02:12:31;;;;;;;10.30;3.40;;;;;;;20.73;41.43;98379.36;105956;1276;97891;-70
2022/06/20 02:15:04;;;;;;;3.80;2.50;;;;;;;20.68;41.52;98382.02;105916;1276;97970;-68
2022/06/20 02:17:39;;;;;;;6.00;2.90;;;;;;;20.66;41.63;98383.95;106009;1276;111400;-67
2022/06/20 02:20:13;;;;;;;6.10;2.50;;;;;;;20.65;41.84;98382.23;105969;1276;97991;-67
2022/06/20 02:22:44;;;;;;;11.10;2.90;;;;;;;20.65;41.72;98384.48;105895;1276;107826;-67
2022/06/20 02:25:18;;;;;;;7.10;3.00;;;;;;;20.61;41.84;98383.29;105915;1276;95809;-66
2022/06/20 02:28:14;;;;;;;19.30;8.80;;;;;;;20.59;42.06;98387.70;105932;1276;97877;-66
2022/06/20 02:30:45;;;;;;;21.00;8.30;;;;;;;20.56;42.01;98382.73;105842;1276;111943;-67
2022/06/20 02:33:23;;;;;;;10.50;4.50;;;;;;;20.54;42.10;98390.54;105910;1276;97885;-64
2022/06/20 02:35:56;;;;;;;7.00;3.00;;;;;;;20.50;42.05;98401.39;105944;1276;108381;-68
2022/06/20 02:38:26;;;;;;;8.30;3.30;;;;;;;20.46;42.17;98402.34;105977;1276;97976;-68
2022/06/20 02:40:57;;;;;;;7.60;2.90;;;;;;;20.41;42.26;98396.45;106018;1276;97861;-67
2022/06/20 02:44:12;;;;;;;9.60;3.10;;;;;;;20.35;42.20;98393.77;105935;1276;112359;-67
2022/06/20 02:46:42;;;;;;;10.00;3.00;;;;;;;20.28;42.30;98395.21;105645;1282;96424;-66
2022/06/20 02:49:16;;;;;;;9.70;2.90;;;;;;;20.24;42.34;98385.53;105573;1282;108327;-67
2022/06/20 02:51:49;;;;;;;;;;;;;;;20.22;42.37;98377.50;105789;1276;95204;-67
2022/06/20 02:54:19;;;;;;;;;;;;;;;20.20;42.50;98376.36;105860;1276;96675;-67
2022/06/20 02:56:58;;;;;;;8.30;3.10;;;;;;;20.19;42.56;98375.05;106071;1277;111619;-67
2022/06/20 02:59:34;;;;;;;7.10;2.70;;;;;;;20.22;42.61;98371.80;105815;1276;97624;-67
2022/06/20 03:02:08;;;;;;;6.00;2.40;;;;;;;20.25;42.62;98368.39;105832;1279;107827;-68
2022/06/20 03:04:39;;;;;;;;;;;;;;;20.30;42.67;98363.79;105922;1277;96421;-68
2022/06/20 03:07:14;;;;;;;8.60;3.30;;;;;;;20.34;42.68;98362.71;105928;1278;96594;-67
2022/06/20 03:09:47;;;;;;;5.90;2.40;;;;;;;20.41;42.85;98366.88;105864;1278;111401;-68
2022/06/20 03:12:17;;;;;;;4.70;2.60;;;;;;;20.47;42.79;98370.08;105876;1278;97717;-67
2022/06/20 03:14:51;;;;;;;5.00;2.50;;;;;;;20.53;42.82;98368.67;105867;1278;108159;-68
2022/06/20 03:17:23;;;;;;;20.80;9.10;;;;;;;20.58;42.88;98366.02;105886;1278;97973;-68
2022/06/20 03:19:58;;;;;;;11.60;3.50;;;;;;;20.64;42.94;98365.85;105991;1276;96937;-67
2022/06/20 03:22:38;;;;;;;5.40;2.40;;;;;;;20.70;42.96;98364.41;105916;1276;111421;-67
2022/06/20 03:25:13;;;;;;;8.50;2.60;;;;;;;20.75;43.05;98357.85;105871;1278;97655;-67
2022/06/20 03:27:44;;;;;;;8.10;2.50;;;;;;;20.78;43.15;98362.27;105888;1279;106506;-66
2022/06/20 03:30:37;;;;;;;5.90;2.80;;;;;;;20.79;43.19;98356.57;105907;1276;97965;-67
2022/06/20 03:33:13;;;;;;;5.70;2.90;;;;;;;20.80;43.16;98352.71;106011;1276;97872;-68
2022/06/20 03:35:49;;;;;;;4.90;2.60;;;;;;;20.81;43.30;98348.07;105980;1275;110871;-67
2022/06/20 03:38:20;;;;;;;6.10;2.80;;;;;;;20.81;43.22;98346.00;105849;1276;98948;-67
2022/06/20 03:40:50;;;;;;;9.20;2.80;;;;;;;20.83;43.42;98348.16;105946;1276;107960;-67
2022/06/20 03:43:24;;;;;;;6.80;2.70;;;;;;;20.84;43.37;98352.33;105877;1276;96421;-66
2022/06/20 03:45:58;;;;;;;4.20;2.60;;;;;;;20.85;43.56;98347.77;103956;1276;2637480;-66
2022/06/20 03:48:40;;;;;;;8.30;2.50;;;;;;;20.87;43.55;98344.66;105939;1276;110093;-69
2022/06/20 03:51:23;;;;;;;7.90;2.60;;;;;;;20.88;43.42;98330.79;105999;1277;97897;-70
2022/06/20 03:54:03;;;;;;;3.60;2.30;;;;;;;20.89;43.48;98329.34;105862;1276;109641;-66
2022/06/20 03:56:45;;;;;;;5.70;2.50;;;;;;;20.93;43.58;98324.38;105915;1278;96360;-66
2022/06/20 03:59:56;;;;;;;8.10;2.80;;;;;;;20.99;43.58;98322.76;105955;1276;97886;-66
2022/06/20 04:02:28;;;;;;;8.20;2.50;;;;;;;21.06;43.61;98332.82;105399;1278;111418;-66
2022/06/20 04:05:14;;;;;;;7.10;3.20;;;;;;;21.12;43.60;98334.95;105969;1276;95214;-66
2022/06/20 04:07:53;;;;;;;6.70;3.00;;;;;;;21.19;43.67;98336.45;106000;1276;108355;-66
2022/06/20 04:13:32;;;;;;;5.70;2.50;;;;;;;21.30;43.68;98339.80;106009;1276;97883;-66
2022/06/20 04:16:26;;;;;;;7.00;2.90;;;;;;;21.35;43.70;98343.84;105984;1276;112048;-66
2022/06/20 04:19:15;;;;;;;6.00;2.50;;;;;;;21.40;43.72;98347.34;106007;1276;96404;-65
2022/06/20 04:22:17;;;;;;;9.00;2.60;;;;;;;21.46;43.82;98351.86;106020;1276;107797;-66
2022/06/20 04:25:01;;;;;;;3.20;2.10;;;;;;;21.51;43.90;98357.48;105835;1278;97968;-64
2022/06/20 04:27:45;;;;;;;7.00;2.60;;;;;;;21.57;43.80;98359.96;105968;1276;97943;-67
2022/06/20 04:30:32;;;;;;;7.40;2.40;;;;;;;21.64;43.98;98357.39;105997;1276;111361;-66
2022/06/20 04:33:07;;;;;;;7.00;2.20;;;;;;;21.70;43.99;98354.39;105804;1277;97998;-65
2022/06/20 04:35:47;;;;;;;6.30;2.30;;;;;;;21.78;43.90;98356.56;105961;1276;107751;-67
2022/06/20 04:38:30;;;;;;;5.20;2.70;;;;;;;21.87;43.94;98353.42;105964;1276;95289;-66
2022/06/20 04:41:11;;;;;;;7.60;2.50;;;;;;;21.97;43.91;98355.59;106007;1276;97944;-66
2022/06/20 04:43:54;;;;;;;7.10;2.50;;;;;;;22.06;43.80;98361.11;105998;1276;111428;-67
2022/06/20 04:46:34;;;;;;;6.50;2.40;;;;;;;22.15;43.79;98363.19;105930;1278;97910;-67
2022/06/20 04:49:02;;;;;;;10.10;2.80;;;;;;;22.23;43.59;98360.40;105982;1276;107671;-67
2022/06/20 04:51:40;;;;;;;4.40;2.30;;;;;;;22.30;43.66;98358.38;105974;1276;99507;-66
2022/06/20 04:54:15;;;;;;;4.80;2.40;;;;;;;22.39;43.74;98360.86;105962;1276;97957;-67
2022/06/20 04:56:45;;;;;;;8.50;2.80;;;;;;;22.47;43.73;98369.02;105910;1277;111545;-67
2022/06/20 04:59:20;;;;;;;7.20;2.90;;;;;;;22.54;43.46;98362.38;105961;1276;97994;-66
2022/06/20 05:01:52;;;;;;;9.90;2.80;;;;;;;22.61;43.55;98361.16;105881;1276;107578;-66
2022/06/20 05:04:36;;;;;;;5.10;2.40;;;;;;;22.69;43.51;98365.08;105901;1276;97985;-66
2022/06/20 05:07:27;;;;;;;8.30;2.60;;;;;;;22.76;43.48;98375.11;105954;1276;97972;-66
2022/06/20 05:10:08;;;;;;;4.10;2.60;;;;;;;22.85;43.64;98380.80;105911;1276;111958;-66
2022/06/20 05:13:03;;;;;;;8.60;3.50;;;;;;;22.92;43.68;98381.31;105954;1276;97989;-66
2022/06/20 05:15:43;;;;;;;9.80;3.00;;;;;;;23.00;43.58;98388.75;105884;1276;107734;-64
2022/06/20 05:18:38;;;;;;;6.60;2.40;;;;;;;23.04;43.67;98392.11;105921;1276;98041;-67
2022/06/20 05:21:19;;;;;;;5.90;2.80;;;;;;;23.09;43.69;98394.36;106004;1276;98048;-68
2022/06/20 05:23:54;;;;;;;8.30;2.60;;;;;;;23.14;43.54;98392.28;105953;1276;111645;-65
2022/06/20 05:26:30;;;;;;;8.00;2.60;;;;;;;23.19;43.47;98389.70;105932;1277;97901;-66
2022/06/20 05:29:05;;;;;;;3.60;2.20;;;;;;;23.24;43.53;98392.54;105845;1277;107727;-64
2022/06/20 05:31:49;;;;;;;11.50;2.80;;;;;;;23.30;43.40;98394.62;106027;1276;97912;-67
2022/06/20 05:34:30;;;;;;;7.20;2.60;;;;;;;23.36;43.41;98384.19;106018;1276;97867;-66
2022/06/20 05:37:20;;;;;;;7.90;2.60;;;;;;;23.46;43.25;98389.02;105944;1277;111493;-69
2022/06/20 05:39:52;;;;;;;10.70;2.80;;;;;;;23.57;43.09;98395.80;105956;1276;98167;-67
2022/06/20 05:42:22;;;;;;;6.50;2.40;;;;;;;23.69;43.14;98395.45;105954;1276;108440;-68
2022/06/20 05:44:50;;;;;;;6.60;2.70;;;;;;;23.82;43.12;98389.75;105895;1276;96375;-65
2022/06/20 05:47:19;;;;;;;7.60;2.80;;;;;;;23.94;43.00;98384.06;105933;1276;97776;-66
2022/06/20 05:50:13;;;;;;;8.60;2.90;;;;;;;24.07;43.42;98384.35;105912;1277;112393;-66
2022/06/20 05:52:45;;;;;;;7.70;2.50;;;;;;;24.24;43.14;98389.99;105810;1276;97979;-65
2022/06/20 05:55:24;;;;;;;4.20;2.40;;;;;;;24.38;43.26;98379.23;105970;1276;108310;-64
2022/06/20 05:57:56;;;;;;;5.10;2.60;;;;;;;24.49;43.04;98372.53;105906;1277;97913;-64
2022/06/20 06:00:33;;;;;;;9.00;2.50;;;;;;;24.59;43.02;98384.60;105942;1276;97980;-66
2022/06/20 06:03:15;;;;;;;8.90;2.70;;;;;;;24.65;42.92;98394.48;105711;1276;111387;-66
2022/06/20 06:05:54;;;;;;;10.80;3.20;;;;;;;24.73;42.85;98384.36;105914;1276;97977;-65
2022/06/20 06:08:42;;;;;;;9.70;2.60;;;;;;;24.85;42.86;98378.59;105991;1277;107618;-68
2022/06/20 06:11:43;;;;;;;5.40;2.50;;;;;;;24.96;42.74;98390.05;105874;1277;97965;-69
2022/06/20 06:14:24;;;;;;;8.20;2.50;;;;;;;25.08;42.71;98388.90;105871;1277;97886;-68
2022/06/20 06:17:01;;;;;;;7.00;2.90;;;;;;;25.19;42.73;98384.69;105932;1277;112690;-68
2022/06/20 06:19:54;;;;;;;7.60;3.30;;;;;;;25.32;42.63;98384.11;105896;1277;98157;-67
2022/06/20 06:22:32;;;;;;;9.10;3.00;;;;;;;25.46;42.68;98390.11;105879;1278;107829;-68
2022/06/20 06:25:41;;;;;;;6.40;2.70;;;;;;;25.59;42.65;98384.73;105876;1277;96542;-69
2022/06/20 06:28:24;;;;;;;11.00;2.80;;;;;;;25.72;42.51;98378.32;105893;1278;97959;-69
2022/06/20 06:31:30;;;;;;;4.50;2.30;;;;;;;25.85;42.41;98382.11;105684;1277;111363;-69
2022/06/20 06:34:12;;;;;;;7.90;3.10;;;;;;;26.00;42.45;98384.88;105558;1278;95642;-67
2022/06/20 06:36:59;;;;;;;10.20;2.80;;;;;;;26.15;42.32;98381.23;105931;1278;107500;-66
2022/06/20 06:39:45;;;;;;;6.70;2.40;;;;;;;26.34;42.08;98379.52;105817;1278;95352;-66
2022/06/20 06:42:20;;;;;;;6.10;2.60;;;;;;;26.55;42.23;98380.98;105998;1277;97981;-68
2022/06/20 06:44:51;;;;;;;8.10;2.70;;;;;;;26.74;42.06;98382.08;106373;1277;112079;-67
2022/06/20 06:47:30;;;;;;;8.30;2.70;;;;;;;26.95;42.07;98382.07;105845;1276;95703;-68
2022/06/20 06:50:26;;;;;;;9.30;2.90;;;;;;;27.15;41.87;98378.11;105832;1277;108175;-68
2022/06/20 06:53:05;;;;;;;5.80;2.40;;;;;;;27.37;41.67;98377.09;105827;1278;97842;-69
2022/06/20 06:55:38;;;;;;;6.20;2.40;;;;;;;27.59;41.79;98381.42;105935;1276;97892;-69
2022/06/20 06:58:18;;;;;;;5.20;2.50;;;;;;;27.91;41.62;98380.36;105873;1277;111372;-71
2022/06/20 07:01:03;;;;;;;6.00;2.70;;;;;;;28.57;41.42;98370.56;105881;1277;95678;-69
2022/06/20 07:03:50;;;;;;;5.70;2.30;;;;;;;30.19;40.48;98366.91;105857;1277;107727;-67
2022/06/20 07:06:35;;;;;;;5.40;2.40;;;;;;;31.99;39.92;98373.55;105853;1277;97997;-66
2022/06/20 07:09:28;;;;;;;4.40;2.50;;;;;;;33.73;39.52;98370.98;105899;1277;97962;-70
2022/06/20 07:12:19;;;;;;;6.70;2.10;;;;;;;35.32;39.71;98368.86;105805;1278;111418;-73
2022/06/20 07:15:06;;;;;;;4.30;2.40;;;;;;;35.00;40.55;98366.39;105829;1277;98429;-73
2022/06/20 07:17:41;;;;;;;6.40;2.60;;;;;;;34.45;39.98;98365.48;105710;1277;106167;-71
2022/06/20 07:20:14;;;;;;;6.40;3.10;;;;;;;33.98;39.52;98365.13;105857;1276;95849;-72
2022/06/20 07:22:43;;;;;;;;;;;;;;;33.66;39.16;98360.66;105868;1277;97881;-71
2022/06/20 07:25:20;;;;;;;6.40;2.60;;;;;;;33.30;38.52;98359.58;105865;1277;111442;-74
2022/06/20 07:28:04;;;;;;;5.70;2.20;;;;;;;33.01;38.45;98361.50;105966;1277;98373;-77
2022/06/20 07:30:37;;;;;;;5.70;2.50;;;;;;;32.77;38.10;98366.76;106056;1277;105822;-76
2022/06/20 07:33:18;;;;;;;9.30;2.70;;;;;;;32.60;37.61;98366.70;105851;1277;97837;-74
2022/06/20 07:35:49;;;;;;;4.10;2.30;;;;;;;32.49;37.42;98371.25;105764;1276;95626;-75
2022/06/20 07:38:23;;;;;;;11.00;3.00;;;;;;;32.34;37.01;98375.73;105807;1276;111265;-77
2022/06/20 07:41:24;;;;;;;5.90;2.30;;;;;;;32.25;36.73;98377.23;105871;1277;96029;-73
2022/06/20 07:44:13;;;;;;;6.70;2.30;;;;;;;32.28;36.58;98376.16;105870;1277;107909;-73
2022/06/20 07:46:50;;;;;;;8.00;2.70;;;;;;;32.42;36.34;98371.80;105863;1277;97942;-75
2022/06/20 07:49:31;;;;;;;3.00;2.40;;;;;;;32.98;35.79;98369.70;105929;1277;97798;-74
2022/06/20 07:52:07;;;;;;;6.90;2.50;;;;;;;33.72;35.39;98373.60;105957;1276;111506;-76
2022/06/20 07:54:42;;;;;;;9.30;2.80;;;;;;;34.42;35.25;98364.71;106046;1277;97842;-76
2022/06/20 07:57:19;;;;;;;8.60;2.70;;;;;;;35.06;34.95;98365.19;105976;1277;107727;-75
2022/06/20 07:59:56;;;;;;;7.00;2.50;;;;;;;35.66;34.66;98363.88;105863;1277;97967;-73
2022/06/20 08:02:36;;;;;;;6.90;3.10;;;;;;;36.00;34.31;98364.03;105921;1277;98583;-74
2022/06/20 08:05:06;;;;;;;7.80;2.90;;;;;;;36.29;34.36;98367.34;105675;1277;111336;-72
2022/06/20 08:07:42;;;;;;;9.20;2.70;;;;;;;36.76;34.12;98368.73;105837;1277;95771;-74
2022/06/20 08:10:19;;;;;;;9.20;3.00;;;;;;;37.35;33.87;98359.03;105834;1277;107774;-74
2022/06/20 08:13:16;;;;;;;6.40;2.60;;;;;;;37.96;33.79;98350.78;105755;1278;95374;-73
2022/06/20 08:15:57;;;;;;;7.60;2.80;;;;;;;38.45;33.28;98351.98;105904;1277;96237;-75
2022/06/20 08:18:27;;;;;;;4.20;2.30;;;;;;;38.69;32.89;98345.52;105833;1276;111396;-75
2022/06/20 08:21:00;;;;;;;6.70;2.70;;;;;;;38.76;32.79;98349.30;105880;1276;98058;-75
2022/06/20 08:23:36;;;;;;;6.50;2.50;;;;;;;38.97;32.51;98348.02;105801;1277;107700;-72
2022/06/20 08:26:09;;;;;;;8.00;2.60;;;;;;;39.07;32.02;98343.30;105924;1276;97975;-72
2022/06/20 08:28:44;;;;;;;12.40;3.00;;;;;;;39.42;31.85;98339.48;105995;1277;96433;-73
2022/06/20 08:31:20;;;;;;;7.10;2.80;;;;;;;39.78;31.53;98332.86;105962;1276;111323;-74
2022/06/20 08:33:59;;;;;;;6.30;2.30;;;;;;;40.05;31.20;98327.88;106047;1276;96506;-73
2022/06/20 08:36:37;;;;;;;6.90;3.10;;;;;;;40.30;30.78;98330.80;105910;1277;107063;-74
2022/06/20 08:39:34;;;;;;;5.90;2.60;;;;;;;40.44;30.34;98333.58;105931;1277;97915;-75
2022/06/20 08:42:33;;;;;;;7.60;2.80;;;;;;;40.64;29.72;98333.59;105950;1277;95273;-77
2022/06/20 08:45:19;;;;;;;7.00;3.00;;;;;;;40.77;29.81;98325.80;105933;1276;111817;-76
2022/06/20 08:48:08;;;;;;;9.10;2.60;;;;;;;40.90;29.62;98322.62;105969;1276;97878;-73
2022/06/20 08:50:46;;;;;;;5.60;2.40;;;;;;;41.06;29.03;98317.09;105981;1276;107819;-74
2022/06/20 08:53:20;;;;;;;9.60;2.80;;;;;;;40.99;28.80;98313.93;105932;1277;97861;-73
2022/06/20 08:56:16;;;;;;;9.00;3.10;;;;;;;41.01;28.94;98311.08;105975;1276;97912;-73
2022/06/20 08:59:06;;;;;;;7.60;2.80;;;;;;;41.08;28.60;98311.44;105876;1278;111965;-72
2022/06/20 09:01:48;;;;;;;6.30;2.60;;;;;;;41.22;28.44;98306.45;105966;1276;97883;-74
2022/06/20 09:04:42;;;;;;;7.50;3.00;;;;;;;41.33;28.07;98305.00;105976;1276;108575;-76
2022/06/20 09:07:48;;;;;;;7.40;2.50;;;;;;;41.30;27.69;98300.12;105954;1276;97903;-71
2022/06/20 09:10:50;;;;;;;9.70;2.40;;;;;;;41.33;27.71;98301.10;105660;1278;97904;-74
2022/06/20 09:13:27;;;;;;;6.50;2.80;;;;;;;41.24;27.01;98297.33;105912;1276;111414;-75
2022/06/20 09:16:17;;;;;;;5.10;2.70;;;;;;;41.07;27.05;98294.98;105918;1277;97989;-77
2022/06/20 09:19:04;;;;;;;11.60;3.00;;;;;;;41.08;27.03;98286.41;105906;1276;108684;-73
2022/06/20 09:21:44;;;;;;;7.20;2.90;;;;;;;40.99;26.61;98284.36;105912;1276;97893;-75
2022/06/20 09:24:29;;;;;;;8.60;2.70;;;;;;;40.86;26.44;98278.48;106012;1276;95163;-69
2022/06/20 09:27:16;;;;;;;8.10;3.20;;;;;;;40.55;26.36;98278.18;105978;1276;111536;-71
2022/06/20 09:30:24;;;;;;;3.20;2.20;;;;;;;40.39;26.54;98280.48;105896;1276;98401;-75
2022/06/20 09:33:09;;;;;;;5.80;2.60;;;;;;;40.29;26.27;98272.67;105887;1276;107543;-70
2022/06/20 09:36:20;;;;;;;7.30;2.70;;;;;;;40.03;25.92;98267.31;105882;1277;97896;-70
2022/06/20 09:39:18;;;;;;;9.80;3.20;;;;;;;39.72;25.63;98256.27;105983;1276;97843;-70
2022/06/20 09:41:57;;;;;;;7.40;2.90;;;;;;;39.55;25.46;98252.54;105992;1276;111477;-70
2022/06/20 09:44:35;;;;;;;8.60;2.50;;;;;;;39.36;25.58;98253.14;105955;1277;98497;-72
2022/06/20 09:47:41;;;;;;;10.10;2.70;;;;;;;39.17;25.49;98245.36;105906;1276;107820;-74
2022/06/20 09:50:30;;;;;;;7.50;2.90;;;;;;;38.97;25.45;98240.27;105987;1276;98442;-72
2022/06/20 09:53:29;;;;;;;9.30;2.80;;;;;;;38.73;25.50;98237.50;105952;1276;95948;-70
2022/06/20 09:56:16;;;;;;;6.70;2.80;;;;;;;38.48;25.16;98237.88;105951;1276;111445;-71
2022/06/20 09:59:10;;;;;;;7.50;3.10;;;;;;;37.99;24.82;98234.98;105916;1277;95732;-72
2022/06/20 10:01:55;;;;;;;5.20;2.90;;;;;;;37.33;24.92;98224.20;105967;1276;105888;-71
2022/06/20 10:04:38;;;;;;;7.50;3.00;;;;;;;36.92;24.92;98217.64;105893;1276;97810;-69
2022/06/20 10:07:53;;;;;;;9.10;3.10;;;;;;;36.64;25.01;98212.29;105897;1276;97973;-72
2022/06/20 10:10:48;;;;;;;11.00;4.20;;;;;;;36.14;24.79;98208.25;105815;1276;111437;-71
2022/06/20 10:13:30;;;;;;;6.60;3.20;;;;;;;35.64;24.92;98200.12;105927;1276;97953;-70
2022/06/20 10:16:10;;;;;;;14.90;4.00;;;;;;;35.10;24.76;98195.39;105991;1276;107777;-72
2022/06/20 10:18:50;;;;;;;14.00;3.70;;;;;;;34.68;24.97;98191.02;105902;1276;97981;-69
2022/06/20 10:21:31;;;;;;;12.90;3.40;;;;;;;34.31;24.81;98194.45;105970;1276;97865;-71
2022/06/20 10:24:43;;;;;;;9.20;3.50;;;;;;;33.81;24.74;98186.38;105945;1276;112102;-70
2022/06/20 10:27:25;;;;;;;9.70;3.30;;;;;;;33.51;24.94;98187.27;105920;1276;97898;-68
2022/06/20 10:30:17;;;;;;;11.40;3.80;;;;;;;33.25;25.19;98185.61;105913;1277;107708;-71
2022/06/20 10:33:17;;;;;;;11.50;3.40;;;;;;;33.02;25.10;98180.42;105962;1276;98575;-70
2022/06/20 10:35:54;;;;;;;8.80;3.20;;;;;;;32.75;25.23;98178.73;105972;1276;96456;-70
2022/06/20 10:38:37;;;;;;;12.10;3.30;;;;;;;32.52;25.44;98171.29;105920;1276;113045;-72
2022/06/20 10:41:09;;;;;;;10.50;3.30;;;;;;;32.35;25.67;98167.95;105963;1276;95699;-72
2022/06/20 10:43:47;;;;;;;11.70;4.20;;;;;;;32.19;25.65;98162.82;105929;1276;107806;-70
2022/06/20 10:46:41;;;;;;;6.10;2.70;;;;;;;31.96;25.64;98158.93;105969;1276;97989;-71
2022/06/20 10:49:38;;;;;;;10.10;3.10;;;;;;;31.83;25.88;98152.59;105965;1276;97952;-70
2022/06/20 10:52:29;;;;;;;12.30;2.90;;;;;;;31.69;25.88;98156.08;105850;1277;112168;-71
2022/06/20 10:55:15;;;;;;;8.50;2.90;;;;;;;31.60;26.08;98150.83;105977;1276;98488;-70
2022/06/20 10:58:20;;;;;;;11.30;3.20;;;;;;;31.67;26.17;98135.89;105940;1276;106752;-68
2022/06/20 11:00:56;;;;;;;10.50;3.90;;;;;;;31.70;26.44;98131.30;105839;1278;97936;-70
2022/06/20 11:04:04;;;;;;;11.60;3.90;;;;;;;31.65;26.46;98130.16;105919;1276;97997;-69
2022/06/20 11:06:52;;;;;;;9.50;3.10;;;;;;;31.54;26.66;98127.59;105885;1276;112113;-68
2022/06/20 11:09:27;;;;;;;7.70;3.00;;;;;;;31.45;26.77;98120.92;105913;1276;98350;-70
2022/06/20 11:12:06;;;;;;;9.70;3.20;;;;;;;31.36;26.58;98118.27;105991;1276;107814;-69
2022/06/20 11:15:03;;;;;;;11.20;3.00;;;;;;;31.25;26.98;98116.15;105968;1276;97900;-71
2022/06/20 11:18:08;;;;;;;7.60;3.00;;;;;;;31.21;27.09;98117.79;105950;1276;97970;-71
2022/06/20 11:20:45;;;;;;;9.00;2.90;;;;;;;31.20;27.14;98114.77;105961;1276;111441;-70
2022/06/20 11:23:28;;;;;;;10.10;3.30;;;;;;;31.16;27.19;98108.64;105859;1276;97823;-72
2022/06/20 11:26:08;;;;;;;9.00;3.30;;;;;;;31.07;27.24;98111.79;105901;1276;107807;-71
2022/06/20 11:28:53;;;;;;;11.60;3.40;;;;;;;30.95;27.21;98106.86;105943;1276;97861;-72
2022/06/20 11:31:30;;;;;;;12.10;3.50;;;;;;;30.91;27.52;98109.38;105951;1276;97884;-70
2022/06/20 11:34:27;;;;;;;13.40;3.20;;;;;;;30.90;27.44;98114.09;105888;1276;111422;-71
2022/06/20 11:37:12;;;;;;;12.70;3.60;;;;;;;30.89;27.52;98111.23;105893;1276;96007;-70
2022/06/20 11:40:04;;;;;;;13.20;3.30;;;;;;;30.90;27.73;98111.73;105892;1276;107707;-71
2022/06/20 11:42:42;;;;;;;14.60;3.50;;;;;;;30.84;27.70;98113.67;105976;1276;97880;-72
2022/06/20 11:45:38;;;;;;;13.90;3.30;;;;;;;30.78;27.79;98119.64;105954;1276;97980;-70
2022/06/20 11:48:27;;;;;;;11.40;3.00;;;;;;;30.86;27.76;98120.66;105930;1276;112943;-69
2022/06/20 11:51:10;;;;;;;8.50;2.90;;;;;;;30.97;28.03;98119.44;105989;1276;97859;-73
2022/06/20 11:54:03;;;;;;;;;;;;;;;31.00;28.04;98120.88;105959;1276;107495;-72
2022/06/20 11:56:47;;;;;;;10.10;3.20;;;;;;;30.97;28.01;98122.34;105963;1276;95323;-71
2022/06/20 11:59:42;;;;;;;10.70;3.20;;;;;;;30.97;27.96;98122.96;105978;1276;95316;-71
2022/06/20 12:02:47;;;;;;;10.60;3.00;;;;;;;30.96;28.02;98124.98;105917;1277;111377;-72
2022/06/20 12:05:18;;;;;;;10.80;3.20;;;;;;;30.87;28.06;98115.07;105966;1277;95712;-71
2022/06/20 12:08:29;;;;;;;5.70;2.80;;;;;;;30.86;28.06;98112.96;105880;1276;109152;-73
2022/06/20 12:11:32;;;;;;;7.50;2.80;;;;;;;30.84;28.20;98111.98;105891;1276;97984;-74
2022/06/20 12:14:38;;;;;;;7.50;2.80;;;;;;;30.76;28.27;98101.61;105951;1276;97909;-73
2022/06/20 12:17:27;;;;;;;10.70;3.00;;;;;;;30.76;28.38;98099.10;105917;1276;111026;-72
2022/06/20 12:23:18;;;;;;;8.60;2.80;;;;;;;30.81;28.51;98108.66;105948;1276;107722;-71
2022/06/20 12:26:11;;;;;;;8.50;3.00;;;;;;;30.92;28.65;98114.75;105933;1276;99305;-71
2022/06/20 12:28:47;;;;;;;10.90;3.80;;;;;;;30.91;28.66;98121.56;105939;1277;97937;-68
2022/06/20 12:31:28;;;;;;;8.00;3.20;;;;;;;30.89;28.65;98116.66;105939;1277;109487;-70
2022/06/20 12:34:33;;;;;;;7.20;3.20;;;;;;;30.84;28.74;98113.79;105810;1276;98452;-68
2022/06/20 12:37:07;;;;;;;4.90;2.70;;;;;;;30.87;28.86;98114.79;105832;1277;108404;-71
2022/06/20 12:39:43;;;;;;;10.50;3.00;;;;;;;30.88;28.92;98111.48;105956;1276;97893;-69
2022/06/20 12:42:35;;;;;;;7.50;3.20;;;;;;;30.86;28.87;98103.91;105906;1276;97943;-72